Wetterdaten: Woche 16.04.12 - 22.04.12 (KW16)
Datum Zeit Temperatur Luftfeuchte Luftdruck Niederschlag Windrichtung Sonnenschein Solar Wind
16.04.2012 00:00 5,0 C 95 % 1007,2 hPa 1,0 l/m N-NO 0,00 h 0 W/m 15,4 km/h (3 Bft)
16.04.2012 01:00 4,7 C 95 % 1007,8 hPa 0,6 l/m N-NO 0,00 h 0 W/m 15,8 km/h (3 Bft)
16.04.2012 02:00 4,4 C 95 % 1008,0 hPa 1,0 l/m N-NO 0,00 h 0 W/m 17,2 km/h (3 Bft)
16.04.2012 03:00 4,2 C 95 % 1008,3 hPa 0,4 l/m N-NO 0,00 h 0 W/m 16,6 km/h (3 Bft)
16.04.2012 04:00 4,0 C 95 % 1008,7 hPa 0,8 l/m NO 0,00 h 0 W/m 15,3 km/h (3 Bft)
16.04.2012 05:00 3,9 C 95 % 1009,1 hPa 0,2 l/m N-NO 0,00 h 0 W/m 12,5 km/h (3 Bft)
16.04.2012 06:00 3,9 C 95 % 1009,4 hPa 0,2 l/m N-NO 0,00 h 6 W/m 8,2 km/h (2 Bft)
16.04.2012 07:00 4,1 C 96 % 1010,2 hPa 0,4 l/m N-NO 0,00 h 14 W/m 11,8 km/h (2 Bft)
16.04.2012 08:00 4,4 C 94 % 1011,0 hPa 0,2 l/m N-NO 0,00 h 72 W/m 17,8 km/h (3 Bft)
16.04.2012 09:00 4,9 C 89 % 1011,7 hPa 0,0 l/m O-NO 0,00 h 97 W/m 17,4 km/h (3 Bft)
16.04.2012 10:00 4,9 C 85 % 1012,3 hPa 0,0 l/m O-NO 0,00 h 127 W/m 17,6 km/h (3 Bft)
16.04.2012 11:00 6,2 C 80 % 1012,6 hPa 0,0 l/m N-NO 0,00 h 202 W/m 16,6 km/h (3 Bft)
16.04.2012 12:00 7,2 C 68 % 1012,9 hPa 0,0 l/m NO 0,00 h 294 W/m 22,5 km/h (4 Bft)
16.04.2012 13:00 7,7 C 67 % 1013,1 hPa 0,0 l/m O-NO 0,08 h 213 W/m 18,1 km/h (3 Bft)
16.04.2012 14:00 6,3 C 76 % 1013,7 hPa 0,0 l/m O-NO 0,00 h 80 W/m 15,7 km/h (3 Bft)
16.04.2012 15:00 6,4 C 74 % 1014,1 hPa 0,0 l/m NO 0,00 h 71 W/m 15,7 km/h (3 Bft)
16.04.2012 16:00 6,6 C 71 % 1014,4 hPa 0,0 l/m NO 0,00 h 92 W/m 16,9 km/h (3 Bft)
16.04.2012 17:00 6,9 C 70 % 1014,8 hPa 0,0 l/m N-NO 0,00 h 112 W/m 16,4 km/h (3 Bft)
16.04.2012 18:00 6,1 C 74 % 1015,1 hPa 0,2 l/m N-NO 0,00 h 26 W/m 18,2 km/h (3 Bft)
16.04.2012 19:00 5,3 C 78 % 1015,6 hPa 0,0 l/m N-NO 0,00 h 17 W/m 15,6 km/h (3 Bft)
16.04.2012 20:00 4,9 C 78 % 1016,0 hPa 0,0 l/m N-NO 0,00 h 0 W/m 13,2 km/h (3 Bft)
16.04.2012 21:00 4,4 C 81 % 1016,7 hPa 0,0 l/m N-NO 0,00 h 0 W/m 11,1 km/h (2 Bft)
16.04.2012 22:00 4,0 C 82 % 1017,0 hPa 0,0 l/m N-NO 0,00 h 0 W/m 12,2 km/h (2 Bft)
16.04.2012 23:00 3,8 C 84 % 1016,9 hPa 0,0 l/m N 0,00 h 0 W/m 7,2 km/h (2 Bft)
17.04.2012 00:00 3,5 C 83 % 1016,6 hPa 0,0 l/m NO 0,00 h 0 W/m 6,1 km/h (2 Bft)
17.04.2012 01:00 2,7 C 83 % 1016,4 hPa 0,0 l/m N 0,00 h 0 W/m 2,9 km/h (1 Bft)
17.04.2012 02:00 1,8 C 87 % 1016,3 hPa 0,0 l/m NO 0,00 h 0 W/m 3,3 km/h (1 Bft)
17.04.2012 03:00 1,7 C 87 % 1015,6 hPa 0,0 l/m NO 0,00 h 0 W/m 3,6 km/h (1 Bft)
17.04.2012 04:00 1,3 C 87 % 1015,2 hPa 0,0 l/m NO 0,00 h 0 W/m 4,5 km/h (1 Bft)
17.04.2012 05:00 0,4 C 88 % 1014,7 hPa 0,0 l/m NO 0,00 h 0 W/m 5,3 km/h (1 Bft)
17.04.2012 06:00 -0,3 C 89 % 1014,4 hPa 0,0 l/m N 0,00 h 8 W/m 2,7 km/h (1 Bft)
17.04.2012 07:00 -0,2 C 89 % 1014,4 hPa 0,0 l/m N 0,00 h 45 W/m 2,0 km/h (1 Bft)
17.04.2012 08:00 1,7 C 81 % 1014,3 hPa 0,0 l/m N 0,42 h 182 W/m 5,7 km/h (1 Bft)
17.04.2012 09:00 4,1 C 72 % 1013,7 hPa 0,0 l/m O-SO 1,00 h 415 W/m 7,8 km/h (2 Bft)
17.04.2012 10:00 6,3 C 66 % 1013,1 hPa 0,0 l/m O-SO 0,92 h 542 W/m 10,2 km/h (2 Bft)
17.04.2012 11:00 7,7 C 62 % 1012,4 hPa 0,0 l/m SO 1,00 h 812 W/m 9,0 km/h (2 Bft)
17.04.2012 12:00 7,8 C 56 % 1011,6 hPa 0,0 l/m SW 0,17 h 287 W/m 6,8 km/h (2 Bft)
17.04.2012 13:00 8,1 C 52 % 1010,7 hPa 0,0 l/m W 0,17 h 362 W/m 6,3 km/h (2 Bft)
17.04.2012 14:00 8,7 C 52 % 1009,9 hPa 0,0 l/m N 0,17 h 376 W/m 7,1 km/h (2 Bft)
17.04.2012 15:00 9,5 C 49 % 1008,6 hPa 0,0 l/m SO 0,42 h 402 W/m 10,2 km/h (2 Bft)
17.04.2012 16:00 9,9 C 46 % 1007,3 hPa 0,0 l/m W-SW 0,67 h 405 W/m 14,0 km/h (3 Bft)
17.04.2012 17:00 9,9 C 44 % 1006,4 hPa 0,0 l/m SW 0,50 h 263 W/m 11,6 km/h (2 Bft)
17.04.2012 18:00 9,1 C 44 % 1005,8 hPa 0,0 l/m W-SW 0,08 h 125 W/m 11,0 km/h (2 Bft)
17.04.2012 19:00 8,4 C 53 % 1005,1 hPa 0,0 l/m W-SW 0,08 h 52 W/m 5,3 km/h (1 Bft)
17.04.2012 20:00 6,5 C 63 % 1004,9 hPa 0,0 l/m N 0,08 h 9 W/m 2,4 km/h (1 Bft)
17.04.2012 21:00 4,3 C 75 % 1004,8 hPa 0,0 l/m N 0,00 h 0 W/m 0,0 km/h (0 Bft)
17.04.2012 22:00 2,9 C 82 % 1004,5 hPa 0,0 l/m N 0,00 h 0 W/m 0,0 km/h (0 Bft)
17.04.2012 23:00 1,7 C 87 % 1004,0 hPa 0,0 l/m N 0,00 h 0 W/m 0,0 km/h (0 Bft)
18.04.2012 00:00 0,9 C 89 % 1003,5 hPa 0,0 l/m N 0,00 h 0 W/m 0,0 km/h (0 Bft)
18.04.2012 01:00 0,3 C 91 % 1002,8 hPa 0,0 l/m N 0,00 h 0 W/m 0,0 km/h (0 Bft)
18.04.2012 02:00 0,8 C 92 % 1002,0 hPa 0,0 l/m N 0,00 h 0 W/m 0,1 km/h (0 Bft)
18.04.2012 03:00 1,4 C 90 % 1001,6 hPa 0,0 l/m N 0,00 h 0 W/m 0,1 km/h (0 Bft)
18.04.2012 04:00 1,8 C 90 % 1001,4 hPa 0,0 l/m N 0,00 h 0 W/m 0,4 km/h (0 Bft)
18.04.2012 05:00 2,3 C 90 % 1001,1 hPa 0,0 l/m N 0,00 h 0 W/m 1,3 km/h (1 Bft)
18.04.2012 06:00 2,8 C 91 % 1000,9 hPa 0,0 l/m W-SW 0,00 h 14 W/m 7,8 km/h (2 Bft)
18.04.2012 07:00 4,2 C 87 % 1000,7 hPa 0,0 l/m W-SW 0,00 h 47 W/m 15,3 km/h (3 Bft)
18.04.2012 08:00 4,8 C 88 % 1000,6 hPa 0,0 l/m SW 0,00 h 102 W/m 15,3 km/h (3 Bft)
18.04.2012 09:00 5,4 C 87 % 1000,5 hPa 0,0 l/m SW 0,00 h 117 W/m 15,7 km/h (3 Bft)
18.04.2012 10:00 6,0 C 84 % 1000,1 hPa 0,0 l/m SW 0,00 h 192 W/m 18,6 km/h (3 Bft)
18.04.2012 11:00 6,2 C 84 % 999,6 hPa 0,0 l/m SW 0,00 h 160 W/m 15,4 km/h (3 Bft)
18.04.2012 12:00 7,9 C 79 % 998,8 hPa 0,0 l/m SW 0,25 h 279 W/m 18,8 km/h (3 Bft)
18.04.2012 13:00 8,3 C 72 % 998,1 hPa 0,0 l/m SW 0,00 h 232 W/m 16,8 km/h (3 Bft)
18.04.2012 14:00 8,5 C 72 % 997,7 hPa 0,0 l/m S-SW 0,17 h 258 W/m 13,8 km/h (3 Bft)
18.04.2012 15:00 9,0 C 70 % 996,7 hPa 0,0 l/m SW 0,00 h 243 W/m 17,0 km/h (3 Bft)
18.04.2012 16:00 9,1 C 68 % 995,9 hPa 0,0 l/m SW 0,42 h 284 W/m 15,2 km/h (3 Bft)
18.04.2012 17:00 8,5 C 70 % 995,6 hPa 0,0 l/m S-SW 0,00 h 126 W/m 14,0 km/h (3 Bft)
18.04.2012 18:00 8,2 C 71 % 995,3 hPa 0,0 l/m SW 0,17 h 111 W/m 14,4 km/h (3 Bft)
18.04.2012 19:00 7,6 C 74 % 995,0 hPa 0,0 l/m SW 0,08 h 46 W/m 11,4 km/h (2 Bft)
18.04.2012 20:00 5,9 C 79 % 994,9 hPa 0,0 l/m S-SW 0,00 h 6 W/m 5,1 km/h (1 Bft)
18.04.2012 21:00 4,4 C 83 % 994,9 hPa 0,0 l/m S-SW 0,00 h 0 W/m 2,3 km/h (1 Bft)
18.04.2012 22:00 3,1 C 88 % 994,8 hPa 0,0 l/m N 0,00 h 0 W/m 0,5 km/h (0 Bft)
18.04.2012 23:00 2,8 C 89 % 994,5 hPa 0,0 l/m N 0,00 h 0 W/m 0,7 km/h (0 Bft)
19.04.2012 00:00 2,4 C 91 % 994,5 hPa 0,0 l/m N 0,00 h 0 W/m 0,0 km/h (0 Bft)
19.04.2012 01:00 2,0 C 92 % 994,0 hPa 0,0 l/m N 0,00 h 0 W/m 0,1 km/h (0 Bft)
19.04.2012 02:00 1,3 C 94 % 993,6 hPa 0,0 l/m N 0,00 h 0 W/m 0,1 km/h (0 Bft)
19.04.2012 03:00 0,8 C 94 % 993,3 hPa 0,0 l/m N 0,00 h 0 W/m 0,3 km/h (0 Bft)
19.04.2012 04:00 0,1 C 95 % 992,9 hPa 0,0 l/m N 0,00 h 0 W/m 0,0 km/h (0 Bft)
19.04.2012 05:00 -0,3 C 95 % 992,6 hPa 0,0 l/m N 0,00 h 0 W/m 0,1 km/h (0 Bft)
19.04.2012 06:00 -0,4 C 96 % 992,5 hPa 0,0 l/m N 0,00 h 10 W/m 0,3 km/h (0 Bft)
19.04.2012 07:00 0,9 C 96 % 992,7 hPa 0,0 l/m N 0,33 h 94 W/m 0,1 km/h (0 Bft)
19.04.2012 08:00 4,1 C 87 % 993,2 hPa 0,0 l/m S-SW 0,83 h 264 W/m 7,5 km/h (2 Bft)
19.04.2012 09:00 7,2 C 74 % 993,2 hPa 0,0 l/m S-SW 0,83 h 388 W/m 6,3 km/h (2 Bft)
19.04.2012 10:00 9,6 C 68 % 993,2 hPa 0,0 l/m W-SW 1,00 h 628 W/m 11,6 km/h (2 Bft)
19.04.2012 11:00 11,2 C 62 % 993,0 hPa 0,0 l/m S-SW 1,00 h 626 W/m 12,2 km/h (2 Bft)
19.04.2012 12:00 12,1 C 56 % 992,8 hPa 0,0 l/m S-SW 0,83 h 626 W/m 13,0 km/h (3 Bft)
19.04.2012 13:00 12,8 C 52 % 992,5 hPa 0,0 l/m W-SW 0,75 h 643 W/m 13,8 km/h (3 Bft)
19.04.2012 14:00 13,0 C 49 % 992,4 hPa 0,0 l/m SW 0,50 h 424 W/m 12,2 km/h (2 Bft)
19.04.2012 15:00 13,8 C 48 % 992,1 hPa 0,0 l/m SW 0,92 h 588 W/m 14,4 km/h (3 Bft)
19.04.2012 16:00 13,8 C 44 % 991,8 hPa 0,0 l/m SW 1,00 h 529 W/m 13,6 km/h (3 Bft)
19.04.2012 17:00 14,1 C 43 % 991,5 hPa 0,0 l/m W-SW 1,00 h 469 W/m 11,8 km/h (2 Bft)
19.04.2012 18:00 13,1 C 48 % 991,8 hPa 0,0 l/m W-NW 0,50 h 196 W/m 11,5 km/h (2 Bft)
19.04.2012 19:00 12,1 C 49 % 992,3 hPa 0,0 l/m W 0,25 h 43 W/m 12,3 km/h (3 Bft)
19.04.2012 20:00 10,4 C 58 % 992,9 hPa 0,0 l/m W-SW 0,17 h 13 W/m 6,7 km/h (2 Bft)
19.04.2012 21:00 8,9 C 63 % 993,6 hPa 0,0 l/m W-SW 0,00 h 0 W/m 6,7 km/h (2 Bft)
19.04.2012 22:00 8,5 C 64 % 993,9 hPa 0,0 l/m W-SW 0,00 h 0 W/m 7,5 km/h (2 Bft)
19.04.2012 23:00 8,1 C 68 % 994,1 hPa 0,0 l/m SW 0,00 h 0 W/m 10,5 km/h (2 Bft)
20.04.2012 00:00 7,6 C 77 % 994,6 hPa 0,0 l/m SW 0,00 h 0 W/m 12,8 km/h (3 Bft)
20.04.2012 01:00 6,4 C 91 % 994,7 hPa 0,2 l/m SW 0,00 h 0 W/m 9,5 km/h (2 Bft)
20.04.2012 02:00 5,5 C 94 % 994,7 hPa 0,0 l/m SW 0,00 h 0 W/m 10,3 km/h (2 Bft)
20.04.2012 03:00 5,5 C 95 % 994,8 hPa 0,0 l/m SW 0,00 h 0 W/m 9,3 km/h (2 Bft)
20.04.2012 04:00 5,2 C 94 % 994,8 hPa 0,0 l/m W-SW 0,00 h 0 W/m 8,6 km/h (2 Bft)
20.04.2012 05:00 5,2 C 93 % 995,1 hPa 0,0 l/m SW 0,00 h 0 W/m 7,9 km/h (2 Bft)
20.04.2012 06:00 4,4 C 93 % 995,4 hPa 0,2 l/m N 0,00 h 9 W/m 2,5 km/h (1 Bft)
20.04.2012 07:00 4,7 C 95 % 995,8 hPa 0,0 l/m SW 0,58 h 104 W/m 6,6 km/h (2 Bft)
20.04.2012 08:00 6,5 C 87 % 996,2 hPa 0,0 l/m W-SW 0,75 h 255 W/m 15,2 km/h (3 Bft)
20.04.2012 09:00 7,9 C 79 % 996,5 hPa 0,0 l/m SW 0,50 h 322 W/m 12,9 km/h (3 Bft)
20.04.2012 10:00 8,9 C 71 % 996,8 hPa 0,0 l/m SW 0,17 h 270 W/m 17,0 km/h (3 Bft)
20.04.2012 11:00 9,9 C 66 % 996,9 hPa 0,0 l/m W-SW 0,50 h 559 W/m 20,5 km/h (4 Bft)
20.04.2012 12:00 11,1 C 60 % 996,6 hPa 0,0 l/m W 0,42 h 468 W/m 20,6 km/h (4 Bft)
20.04.2012 13:00 9,1 C 69 % 997,0 hPa 0,0 l/m W-NW 0,00 h 138 W/m 21,1 km/h (4 Bft)
20.04.2012 14:00 6,6 C 84 % 998,0 hPa 2,6 l/m W-NW 0,00 h 114 W/m 20,8 km/h (4 Bft)
20.04.2012 15:00 8,2 C 83 % 998,1 hPa 0,2 l/m W 0,58 h 523 W/m 12,9 km/h (3 Bft)
20.04.2012 16:00 9,8 C 72 % 998,2 hPa 0,0 l/m SW 0,67 h 342 W/m 20,0 km/h (4 Bft)
20.04.2012 17:00 9,9 C 72 % 998,6 hPa 0,0 l/m W-SW 1,00 h 401 W/m 23,2 km/h (4 Bft)
20.04.2012 18:00 8,0 C 73 % 999,4 hPa 0,0 l/m W-SW 0,00 h 62 W/m 24,4 km/h (4 Bft)
20.04.2012 19:00 7,0 C 79 % 1000,2 hPa 0,0 l/m SW 0,33 h 64 W/m 15,7 km/h (3 Bft)
20.04.2012 20:00 6,4 C 81 % 1000,9 hPa 0,0 l/m SW 0,08 h 18 W/m 13,7 km/h (3 Bft)
20.04.2012 21:00 5,0 C 89 % 1001,8 hPa 0,0 l/m SW 0,00 h 0 W/m 9,3 km/h (2 Bft)
20.04.2012 22:00 4,8 C 89 % 1002,3 hPa 0,0 l/m SW 0,00 h 0 W/m 13,0 km/h (3 Bft)
20.04.2012 23:00 4,2 C 89 % 1002,6 hPa 0,0 l/m SW 0,00 h 0 W/m 10,9 km/h (2 Bft)
21.04.2012 00:00 4,1 C 89 % 1002,6 hPa 0,0 l/m W-SW 0,00 h 0 W/m 11,0 km/h (2 Bft)
21.04.2012 01:00 2,8 C 92 % 1002,8 hPa 0,0 l/m SW 0,00 h 0 W/m 4,8 km/h (1 Bft)
21.04.2012 02:00 2,2 C 94 % 1002,8 hPa 0,0 l/m N 0,00 h 0 W/m 3,6 km/h (1 Bft)
21.04.2012 03:00 2,3 C 94 % 1002,7 hPa 0,0 l/m SW 0,00 h 0 W/m 3,3 km/h (1 Bft)
21.04.2012 04:00 1,6 C 95 % 1002,6 hPa 0,0 l/m SW 0,00 h 0 W/m 3,3 km/h (1 Bft)
21.04.2012 05:00 2,9 C 92 % 1002,7 hPa 0,0 l/m SW 0,00 h 0 W/m 14,1 km/h (3 Bft)
21.04.2012 06:00 3,2 C 92 % 1002,9 hPa 0,0 l/m SW 0,00 h 12 W/m 9,7 km/h (2 Bft)
21.04.2012 07:00 3,7 C 94 % 1003,3 hPa 0,0 l/m SW 0,00 h 30 W/m 9,7 km/h (2 Bft)
21.04.2012 08:00 5,2 C 92 % 1003,8 hPa 0,2 l/m SW 0,25 h 163 W/m 13,7 km/h (3 Bft)
21.04.2012 09:00 7,2 C 81 % 1004,1 hPa 0,0 l/m SW 0,42 h 259 W/m 24,1 km/h (4 Bft)
21.04.2012 10:00 8,8 C 72 % 1004,4 hPa 0,0 l/m SW 0,42 h 348 W/m 25,2 km/h (4 Bft)
21.04.2012 11:00 10,1 C 65 % 1004,2 hPa 0,0 l/m W 0,42 h 373 W/m 25,4 km/h (4 Bft)
21.04.2012 12:00 11,2 C 57 % 1003,9 hPa 0,0 l/m SW 0,67 h 612 W/m 26,7 km/h (4 Bft)
21.04.2012 13:00 12,7 C 51 % 1003,4 hPa 0,0 l/m W-SW 1,00 h 695 W/m 26,8 km/h (4 Bft)
21.04.2012 14:00 13,2 C 47 % 1002,8 hPa 0,0 l/m W 0,83 h 515 W/m 31,9 km/h (5 Bft)
21.04.2012 15:00 13,6 C 45 % 1002,3 hPa 0,0 l/m W-SW 0,42 h 401 W/m 29,0 km/h (5 Bft)
21.04.2012 16:00 14,3 C 44 % 1001,4 hPa 0,0 l/m SW 0,83 h 526 W/m 27,9 km/h (4 Bft)
21.04.2012 17:00 15,0 C 40 % 1000,7 hPa 0,0 l/m S-SW 1,00 h 490 W/m 22,1 km/h (4 Bft)
21.04.2012 18:00 14,4 C 43 % 1000,2 hPa 0,0 l/m SW 0,58 h 185 W/m 14,2 km/h (3 Bft)
21.04.2012 19:00 12,8 C 48 % 1000,7 hPa 0,0 l/m W 0,00 h 14 W/m 17,8 km/h (3 Bft)
21.04.2012 20:00 11,0 C 56 % 1001,6 hPa 0,0 l/m W-NW 0,00 h 0 W/m 24,7 km/h (4 Bft)
21.04.2012 21:00 7,7 C 82 % 1003,6 hPa 2,0 l/m W 0,00 h 0 W/m 30,7 km/h (5 Bft)
21.04.2012 22:00 5,9 C 91 % 1004,3 hPa 2,6 l/m SW 0,00 h 0 W/m 17,4 km/h (3 Bft)
21.04.2012 23:00 5,6 C 94 % 1005,0 hPa 0,0 l/m SW 0,00 h 0 W/m 12,9 km/h (3 Bft)
22.04.2012 00:00 5,6 C 92 % 1005,7 hPa 0,0 l/m SW 0,00 h 0 W/m 18,2 km/h (3 Bft)
22.04.2012 01:00 5,5 C 90 % 1006,2 hPa 0,0 l/m W-SW 0,00 h 0 W/m 20,4 km/h (4 Bft)
22.04.2012 02:00 5,3 C 90 % 1006,5 hPa 0,0 l/m W-SW 0,00 h 0 W/m 17,2 km/h (3 Bft)
22.04.2012 03:00 5,0 C 94 % 1006,5 hPa 0,0 l/m SW 0,00 h 0 W/m 12,8 km/h (3 Bft)
22.04.2012 04:00 4,9 C 94 % 1006,6 hPa 0,0 l/m SW 0,00 h 0 W/m 11,4 km/h (2 Bft)
22.04.2012 05:00 4,9 C 92 % 1006,6 hPa 0,0 l/m SW 0,00 h 0 W/m 10,3 km/h (2 Bft)
22.04.2012 06:00 4,4 C 93 % 1006,6 hPa 0,0 l/m W-SW 0,00 h 13 W/m 7,6 km/h (2 Bft)
22.04.2012 07:00 4,3 C 94 % 1007,0 hPa 0,0 l/m SW 0,00 h 26 W/m 10,1 km/h (2 Bft)
22.04.2012 08:00 5,2 C 91 % 1007,4 hPa 0,0 l/m W-SW 0,17 h 139 W/m 16,6 km/h (3 Bft)
22.04.2012 09:00 7,0 C 81 % 1007,9 hPa 0,0 l/m W-SW 0,42 h 336 W/m 20,4 km/h (4 Bft)
22.04.2012 10:00 7,7 C 74 % 1008,1 hPa 0,0 l/m W 0,08 h 162 W/m 19,7 km/h (3 Bft)
22.04.2012 11:00 7,8 C 74 % 1008,2 hPa 0,0 l/m W-SW 0,08 h 247 W/m 24,1 km/h (4 Bft)
22.04.2012 12:00 8,1 C 73 % 1008,4 hPa 0,0 l/m W-SW 0,33 h 339 W/m 32,1 km/h (5 Bft)
22.04.2012 13:00 7,5 C 76 % 1008,8 hPa 1,0 l/m W-SW 0,00 h 153 W/m 25,6 km/h (4 Bft)
22.04.2012 14:00 7,4 C 85 % 1008,8 hPa 0,4 l/m SW 0,58 h 679 W/m 21,2 km/h (4 Bft)
22.04.2012 15:00 9,7 C 68 % 1008,3 hPa 0,0 l/m W-SW 0,67 h 611 W/m 28,3 km/h (4 Bft)
22.04.2012 16:00 7,8 C 77 % 1008,6 hPa 0,2 l/m SW 0,42 h 376 W/m 22,0 km/h (4 Bft)
22.04.2012 17:00 9,4 C 66 % 1008,2 hPa 0,0 l/m W-SW 0,42 h 330 W/m 22,6 km/h (4 Bft)
22.04.2012 18:00 8,2 C 68 % 1008,8 hPa 0,0 l/m W 0,33 h 140 W/m 28,0 km/h (4 Bft)
22.04.2012 19:00 6,9 C 70 % 1008,9 hPa 0,0 l/m W-SW 0,42 h 73 W/m 17,7 km/h (3 Bft)
22.04.2012 20:00 5,9 C 75 % 1009,5 hPa 0,0 l/m W-SW 0,08 h 10 W/m 17,2 km/h (3 Bft)
22.04.2012 21:00 5,1 C 79 % 1010,3 hPa 0,0 l/m W-SW 0,00 h 0 W/m 16,1 km/h (3 Bft)
22.04.2012 22:00 4,5 C 84 % 1010,3 hPa 0,0 l/m SW 0,00 h 0 W/m 12,8 km/h (3 Bft)
22.04.2012 23:00 3,9 C 88 % 1010,2 hPa 0,0 l/m SW 0,00 h 0 W/m 11,4 km/h (2 Bft)
Min-Datum _ 17.04.12 21.04.12 19.04.12 - - - - 17.04.12
_ Min-Zeit 07:15 17:10 17:55 - - - - 07:00
Minimum _ -0,7 C 39 % 991,3 hPa - - - - 0,0 km/h (0 Bft)
Max-Datum _ 21.04.12 22.04.12 16.04.12 20.04.12 - 16.04.12 22.04.12 22.04.12
_ Max-Zeit 17:30 04:15 22:20 14:25 - 13:20 12:00 15:10
Maximum _ 15,2 C 100 % 1017,1 hPa 2,6 l/m - 0,08 h 1055 W/m 41,8 km/h
W-SW (6 Bft)
Durchschnitt _ 6,3 C 78 % 1003,3 hPa #14,6 l/m SW #33:10 h 246 W/m 12,5 km/h (3 Bft)